Station Historical Data
Daily Summary for May 9, 2011 Units:  English    Metric   Both
« Previous Day
Next Day »
Daily Weekly Monthly Yearly Custom
  High: Low: Average:
Temperature: 85.5 °F 63.3 °F 74.5 °F
Dew Point: 70.6 °F 62.6 °F 66.6 °F
Humidity: 98% 53% 79%
Wind Speed: 12.0mph 0.0mph 2.9mph
Wind Gust: 12.0mph - -
Wind- - SSE
Pressure: 29.93 in 29.79 in -
Precipitation: 0.00 in    
Historical Graphs
 
 
Tabular Data for May 9, 2011
Time Temperature Dew Point Pressure Wind Wind Speed Wind Gust Humidity Rainfall Rate (Hourly) Conditions
00:00 69.2 °F 65.5 °F 29.87 in SE 1.0 mph 1.0 mph 88% 0.00 in
00:01 69.2 °F 65.5 °F 29.87 in SE 1.0 mph 1.0 mph 88% 0.00 in
00:05 69.2 °F 65.5 °F 29.87 in South 2.0 mph 3.0 mph 88% 0.00 in
00:06 69.2 °F 65.8 °F 29.87 in SE 1.0 mph 3.0 mph 89% 0.00 in
00:10 69.2 °F 65.8 °F 29.87 in SE 1.0 mph 2.0 mph 89% 0.00 in
00:15 69.0 °F 65.6 °F 29.86 in SSE 2.0 mph 2.0 mph 89% 0.00 in
00:16 69.0 °F 65.6 °F 29.87 in SSE 2.0 mph 2.0 mph 89% 0.00 in
00:21 68.9 °F 65.8 °F 29.87 in SE 2.0 mph 2.0 mph 90% 0.00 in
00:26 68.9 °F 65.8 °F 29.87 in SE 1.0 mph 2.0 mph 90% 0.00 in
00:27 68.8 °F 65.8 °F 29.87 in SE 1.0 mph 2.0 mph 90% 0.00 in
00:32 68.8 °F 65.8 °F 29.87 in SSE 1.0 mph 2.0 mph 90% 0.00 in
00:34 68.8 °F 65.8 °F 29.87 in SSE 1.0 mph 1.0 mph 90% 0.00 in
00:36 68.7 °F 65.7 °F 29.87 in SSE 1.0 mph 1.0 mph 90% 0.00 in
00:41 68.4 °F 65.4 °F 29.87 in SE 1.0 mph 1.0 mph 90% 0.00 in
00:46 68.3 °F 65.6 °F 29.87 in SE 2.0 mph 2.0 mph 91% 0.00 in
00:51 68.2 °F 65.5 °F 29.87 in SSE 1.0 mph 2.0 mph 91% 0.00 in
00:56 68.1 °F 65.4 °F 29.87 in SE 2.0 mph 3.0 mph 91% 0.00 in
01:01 68.2 °F 65.8 °F 29.87 in SE 2.0 mph 3.0 mph 92% 0.00 in
01:06 68.1 °F 65.7 °F 29.87 in SSE 1.0 mph 3.0 mph 92% 0.00 in
01:11 68.2 °F 65.8 °F 29.87 in SE 2.0 mph 3.0 mph 92% 0.00 in
01:16 68.4 °F 66.0 °F 29.87 in SE 3.0 mph 4.0 mph 92% 0.00 in
01:17 68.5 °F 66.1 °F 29.87 in SE 2.0 mph 4.0 mph 92% 0.00 in
01:21 68.6 °F 65.9 °F 29.88 in SE 2.0 mph 3.0 mph 91% 0.00 in
01:26 68.4 °F 65.7 °F 29.88 in SE 2.0 mph 2.0 mph 91% 0.00 in
01:27 68.5 °F 65.8 °F 29.88 in SE 1.0 mph 2.0 mph 91% 0.00 in
01:32 68.3 °F 65.9 °F 29.88 in SSE 1.0 mph 2.0 mph 92% 0.00 in
01:33 68.3 °F 65.9 °F 29.88 in SSE 1.0 mph 2.0 mph 92% 0.00 in
01:37 68.1 °F 65.7 °F 29.88 in SSE 1.0 mph 2.0 mph 92% 0.00 in
01:38 68.0 °F 65.6 °F 29.88 in SSE 1.0 mph 2.0 mph 92% 0.00 in
01:43 67.8 °F 65.4 °F 29.88 in SSE 1.0 mph 1.0 mph 92% 0.00 in
01:48 67.6 °F 65.5 °F 29.88 in SSE 1.0 mph 1.0 mph 93% 0.00 in
01:54 67.8 °F 65.7 °F 29.88 in SE 2.0 mph 2.0 mph 93% 0.00 in
01:58 67.9 °F 65.8 °F 29.88 in SE 1.0 mph 2.0 mph 93% 0.00 in
01:59 67.9 °F 65.8 °F 29.88 in SE 1.0 mph 2.0 mph 93% 0.00 in
02:04 67.8 °F 65.7 °F 29.88 in SE 1.0 mph 2.0 mph 93% 0.00 in
02:09 67.8 °F 65.7 °F 29.88 in SE 1.0 mph 1.0 mph 93% 0.00 in
02:14 67.5 °F 65.4 °F 29.88 in Calm     93% 0.00 in
02:20 67.4 °F 65.3 °F 29.88 in SE 1.0 mph 1.0 mph 93% 0.00 in
02:25 67.1 °F 65.0 °F 29.88 in Calm   1.0 mph 93% 0.00 in
02:26 67.1 °F 65.0 °F 29.88 in Calm   1.0 mph 93% 0.00 in
02:27 67.0 °F 64.9 °F 29.88 in Calm   1.0 mph 93% 0.00 in
02:31 66.8 °F 65.0 °F 29.88 in Calm   1.0 mph 94% 0.00 in
02:32 66.8 °F 65.0 °F 29.88 in Calm   1.0 mph 94% 0.00 in
02:35 66.7 °F 64.9 °F 29.88 in Calm   1.0 mph 94% 0.00 in
02:38 66.6 °F 64.8 °F 29.87 in Calm     94% 0.00 in
02:40 66.5 °F 64.7 °F 29.87 in Calm     94% 0.00 in
02:45 66.4 °F 64.6 °F 29.87 in Calm   1.0 mph 94% 0.00 in
02:50 66.3 °F 64.8 °F 29.87 in Calm     95% 0.00 in
02:51 66.3 °F 64.8 °F 29.87 in Calm     95% 0.00 in
02:56 66.3 °F 64.8 °F 29.87 in ESE 1.0 mph 1.0 mph 95% 0.00 in
03:01 66.2 °F 64.7 °F 29.87 in East 1.0 mph 2.0 mph 95% 0.00 in
03:06 66.3 °F 65.1 °F 29.87 in East 1.0 mph 2.0 mph 96% 0.00 in
03:07 66.2 °F 65.0 °F 29.87 in East 1.0 mph 2.0 mph 96% 0.00 in
03:12 66.1 °F 64.6 °F 29.87 in Calm   2.0 mph 95% 0.00 in
03:17 65.9 °F 64.4 °F 29.86 in East 1.0 mph 1.0 mph 95% 0.00 in
03:22 65.8 °F 64.6 °F 29.86 in East 2.0 mph 2.0 mph 96% 0.00 in
03:27 65.8 °F 64.6 °F 29.86 in Calm   1.0 mph 96% 0.00 in
03:28 65.8 °F 64.6 °F 29.86 in Calm   1.0 mph 96% 0.00 in
03:33 65.7 °F 64.5 °F 29.86 in Calm   1.0 mph 96% 0.00 in
03:35 65.6 °F 64.4 °F 29.87 in Calm   1.0 mph 96% 0.00 in
03:36 65.6 °F 64.4 °F 29.87 in Calm     96% 0.00 in
03:39 65.4 °F 64.2 °F 29.87 in Calm     96% 0.00 in
03:41 65.3 °F 64.1 °F 29.87 in Calm     96% 0.00 in
03:46 65.2 °F 64.0 °F 29.87 in Calm     96% 0.00 in
03:51 65.3 °F 64.4 °F 29.87 in Calm     97% 0.00 in
03:52 65.3 °F 64.4 °F 29.87 in ESE 2.0 mph 2.0 mph 97% 0.00 in
03:53 65.3 °F 64.4 °F 29.87 in East 1.0 mph 2.0 mph 97% 0.00 in
03:58 65.2 °F 64.0 °F 29.87 in East 1.0 mph 3.0 mph 96% 0.00 in
04:03 64.9 °F 63.7 °F 29.87 in Calm   2.0 mph 96% 0.00 in
04:08 64.8 °F 63.9 °F 29.87 in Calm   1.0 mph 97% 0.00 in
04:13 64.8 °F 63.9 °F 29.87 in ESE 1.0 mph 2.0 mph 97% 0.00 in
04:18 64.8 °F 63.9 °F 29.87 in Calm   1.0 mph 97% 0.00 in
04:23 64.7 °F 63.8 °F 29.87 in Calm   1.0 mph 97% 0.00 in
04:28 64.6 °F 63.7 °F 29.87 in Calm   1.0 mph 97% 0.00 in
04:29 64.6 °F 63.7 °F 29.87 in Calm   1.0 mph 97% 0.00 in
04:33 64.5 °F 63.6 °F 29.87 in ESE 1.0 mph 1.0 mph 97% 0.00 in
04:34 64.5 °F 63.6 °F 29.87 in ESE 1.0 mph 1.0 mph 97% 0.00 in
04:37 64.5 °F 63.6 °F 29.87 in Calm   1.0 mph 97% 0.00 in
04:42 64.5 °F 63.6 °F 29.88 in Calm     97% 0.00 in
04:47 64.6 °F 63.7 °F 29.88 in ESE 1.0 mph 2.0 mph 97% 0.00 in
04:52 64.8 °F 64.2 °F 29.87 in ESE 2.0 mph 3.0 mph 98% 0.00 in
04:57 64.9 °F 64.3 °F 29.87 in ESE 2.0 mph 2.0 mph 98% 0.00 in
05:02 65.0 °F 64.1 °F 29.88 in SE 1.0 mph 2.0 mph 97% 0.00 in
05:07 65.0 °F 64.4 °F 29.88 in SE 2.0 mph 2.0 mph 98% 0.00 in
05:08 65.1 °F 64.5 °F 29.88 in SE 1.0 mph 2.0 mph 98% 0.00 in
05:13 65.1 °F 64.2 °F 29.88 in SE 1.0 mph 2.0 mph 97% 0.00 in
05:18 65.1 °F 64.2 °F 29.88 in SE 1.0 mph 2.0 mph 97% 0.00 in
05:19 65.1 °F 64.2 °F 29.88 in SE 1.0 mph 2.0 mph 97% 0.00 in
05:24 65.1 °F 64.2 °F 29.88 in ESE 1.0 mph 2.0 mph 97% 0.00 in
05:26 65.1 °F 64.2 °F 29.88 in Calm   2.0 mph 97% 0.00 in
05:29 65.0 °F 64.1 °F 29.88 in Calm     97% 0.00 in
05:31 64.9 °F 64.0 °F 29.88 in Calm     97% 0.00 in
05:34 64.7 °F 63.8 °F 29.88 in Calm     97% 0.00 in
05:35 64.6 °F 63.7 °F 29.88 in Calm     97% 0.00 in
05:39 64.4 °F 63.5 °F 29.88 in Calm     97% 0.00 in
05:44 64.4 °F 63.5 °F 29.88 in Calm     97% 0.00 in
05:49 64.6 °F 64.0 °F 29.88 in ESE 1.0 mph 1.0 mph 98% 0.00 in
05:54 64.7 °F 64.1 °F 29.89 in Calm   1.0 mph 98% 0.00 in
05:55 64.7 °F 64.1 °F 29.89 in Calm   1.0 mph 98% 0.00 in
06:00 64.7 °F 64.1 °F 29.88 in Calm     98% 0.00 in
06:01 64.7 °F 63.8 °F 29.88 in Calm     97% 0.00 in
06:05 64.6 °F 63.7 °F 29.89 in Calm     97% 0.00 in
06:10 64.4 °F 63.5 °F 29.89 in Calm     97% 0.00 in
06:11 64.4 °F 63.5 °F 29.89 in Calm     97% 0.00 in
06:16 64.3 °F 63.4 °F 29.89 in Calm     97% 0.00 in
06:21 64.2 °F 63.6 °F 29.89 in Calm     98% 0.00 in
06:26 64.1 °F 63.5 °F 29.89 in Calm     98% 0.00 in
06:27 64.2 °F 63.6 °F 29.89 in Calm     98% 0.00 in
06:31 64.1 °F 63.5 °F 29.89 in Calm     98% 0.00 in
06:33 64.0 °F 63.4 °F 29.89 in Calm     98% 0.00 in
06:35 64.0 °F 63.4 °F 29.89 in Calm     98% 0.00 in
06:38 63.7 °F 62.8 °F 29.89 in Calm     97% 0.00 in
06:41 63.5 °F 62.6 °F 29.89 in Calm     97% 0.00 in
06:46 63.3 °F 62.7 °F 29.90 in Calm     98% 0.00 in
06:51 63.5 °F 62.9 °F 29.90 in Calm     98% 0.00 in
06:52 63.6 °F 63.0 °F 29.90 in Calm     98% 0.00 in
06:57 63.8 °F 63.2 °F 29.90 in Calm     98% 0.00 in
06:58 63.8 °F 63.2 °F 29.90 in Calm     98% 0.00 in
07:02 63.7 °F 63.1 °F 29.90 in Calm     98% 0.00 in
07:03 63.7 °F 63.1 °F 29.90 in Calm     98% 0.00 in
07:08 63.7 °F 63.1 °F 29.90 in Calm     98% 0.00 in
07:09 63.7 °F 63.1 °F 29.91 in Calm     98% 0.00 in
07:14 63.8 °F 63.2 °F 29.91 in East 1.0 mph 1.0 mph 98% 0.00 in
07:19 63.8 °F 63.2 °F 29.90 in Calm   1.0 mph 98% 0.00 in
07:24 63.6 °F 63.0 °F 29.91 in Calm     98% 0.00 in
07:29 63.6 °F 63.0 °F 29.91 in East 1.0 mph 1.0 mph 98% 0.00 in
07:30 63.7 °F 63.1 °F 29.91 in ESE 1.0 mph 2.0 mph 98% 0.00 in
07:35 63.8 °F 63.2 °F 29.91 in Calm   1.0 mph 98% 0.00 in
07:37 63.9 °F 63.3 °F 29.91 in ESE 2.0 mph 3.0 mph 98% 0.00 in
07:41 64.3 °F 63.7 °F 29.91 in SE 1.0 mph 3.0 mph 98% 0.00 in
07:46 64.7 °F 64.1 °F 29.92 in ESE 1.0 mph 3.0 mph 98% 0.00 in
07:51 65.0 °F 64.4 °F 29.92 in East 2.0 mph 2.0 mph 98% 0.00 in
07:52 65.2 °F 64.6 °F 29.92 in East 1.0 mph 2.0 mph 98% 0.00 in
07:55 65.4 °F 64.8 °F 29.92 in East 2.0 mph 2.0 mph 98% 0.00 in
07:57 65.6 °F 65.0 °F 29.92 in East 2.0 mph 3.0 mph 98% 0.00 in
08:00 65.8 °F 65.2 °F 29.92 in ESE 4.0 mph 4.0 mph 98% 0.00 in
08:02 66.0 °F 65.1 °F 29.92 in East 2.0 mph 4.0 mph 97% 0.00 in
08:07 66.3 °F 65.4 °F 29.92 in East 3.0 mph 4.0 mph 97% 0.00 in
08:13 66.5 °F 65.3 °F 29.92 in ESE 3.0 mph 5.0 mph 96% 0.00 in
08:18 66.6 °F 65.4 °F 29.92 in ESE 4.0 mph 5.0 mph 96% 0.00 in
08:23 66.7 °F 65.5 °F 29.92 in East 3.0 mph 5.0 mph 96% 0.00 in
08:28 66.9 °F 65.7 °F 29.92 in ESE 4.0 mph 5.0 mph 96% 0.00 in
08:31 67.0 °F 65.5 °F 29.92 in East 5.0 mph 5.0 mph 95% 0.00 in
08:38 67.2 °F 65.7 °F 29.92 in ESE 3.0 mph 4.0 mph 95% 0.00 in
08:43 67.4 °F 65.9 °F 29.92 in ESE 4.0 mph 4.0 mph 95% 0.00 in
08:48 67.4 °F 65.6 °F 29.92 in East 3.0 mph 5.0 mph 94% 0.00 in
08:53 67.6 °F 65.8 °F 29.92 in ESE 3.0 mph 4.0 mph 94% 0.00 in
08:54 67.7 °F 65.9 °F 29.92 in East 2.0 mph 4.0 mph 94% 0.00 in
08:58 68.0 °F 65.9 °F 29.92 in ESE 3.0 mph 4.0 mph 93% 0.00 in
08:59 68.1 °F 66.0 °F 29.92 in SE 2.0 mph 4.0 mph 93% 0.00 in
09:04 68.5 °F 66.4 °F 29.93 in ESE 3.0 mph 4.0 mph 93% 0.00 in
09:09 69.0 °F 66.6 °F 29.93 in East 2.0 mph 3.0 mph 92% 0.00 in
09:10 69.1 °F 66.7 °F 29.93 in ESE 3.0 mph 3.0 mph 92% 0.00 in
09:15 69.7 °F 67.0 °F 29.93 in East 4.0 mph 4.0 mph 91% 0.00 in
09:20 70.2 °F 67.1 °F 29.93 in ESE 3.0 mph 5.0 mph 90% 0.00 in
09:25 70.5 °F 67.1 °F 29.93 in ESE 1.0 mph 4.0 mph 89% 0.00 in
09:26 70.5 °F 67.1 °F 29.93 in SE 1.0 mph 4.0 mph 89% 0.00 in
09:27 70.6 °F 67.5 °F 29.93 in East 1.0 mph 4.0 mph 90% 0.00 in
09:31 71.4 °F 67.7 °F 29.93 in ENE 2.0 mph 3.0 mph 88% 0.00 in
09:32 71.4 °F 67.7 °F 29.93 in ESE 4.0 mph 4.0 mph 88% 0.00 in
09:36 71.8 °F 67.7 °F 29.93 in SE 3.0 mph 4.0 mph 87% 0.00 in
09:41 72.3 °F 68.2 °F 29.93 in SE 2.0 mph 4.0 mph 87% 0.00 in
09:42 72.4 °F 68.3 °F 29.93 in SE 2.0 mph 4.0 mph 87% 0.00 in
09:47 72.9 °F 68.8 °F 29.93 in SE 3.0 mph 3.0 mph 87% 0.00 in
09:52 73.3 °F 68.5 °F 29.93 in SSE 2.0 mph 4.0 mph 85% 0.00 in
09:57 73.8 °F 68.7 °F 29.93 in SSE 5.0 mph 5.0 mph 84% 0.00 in
10:02 74.4 °F 69.3 °F 29.93 in SSE 4.0 mph 4.0 mph 84% 0.00 in
10:05 74.5 °F 69.0 °F 29.93 in SE 3.0 mph 6.0 mph 83% 0.00 in
10:07 74.6 °F 69.1 °F 29.93 in SE 3.0 mph 5.0 mph 83% 0.00 in
10:08 74.5 °F 68.7 °F 29.93 in ESE 2.0 mph 5.0 mph 82% 0.00 in
10:13 75.1 °F 69.6 °F 29.93 in SE 3.0 mph 5.0 mph 83% 0.00 in
10:18 75.6 °F 68.6 °F 29.93 in SSE 3.0 mph 5.0 mph 79% 0.00 in
10:19 75.6 °F 68.6 °F 29.93 in SSE 3.0 mph 5.0 mph 79% 0.00 in
10:24 75.9 °F 69.3 °F 29.93 in WSW 2.0 mph 5.0 mph 80% 0.00 in
10:29 76.1 °F 68.8 °F 29.93 in SSE 5.0 mph 5.0 mph 78% 0.00 in
10:30 76.2 °F 69.6 °F 29.92 in SE 2.0 mph 5.0 mph 80% 0.00 in
10:34 76.8 °F 69.8 °F 29.92 in SE 4.0 mph 4.0 mph 79% 0.00 in
10:36 76.9 °F 68.8 °F 29.92 in SSE 1.0 mph 4.0 mph 76% 0.00 in
10:41 77.4 °F 69.6 °F 29.92 in SE 2.0 mph 4.0 mph 77% 0.00 in
10:46 77.4 °F 69.6 °F 29.92 in SSE 3.0 mph 6.0 mph 77% 0.00 in
10:52 77.7 °F 68.8 °F 29.92 in SSW 3.0 mph 6.0 mph 74% 0.00 in
10:53 77.9 °F 69.3 °F 29.92 in SW 1.0 mph 6.0 mph 75% 0.00 in
10:57 78.3 °F 68.5 °F 29.92 in SE 2.0 mph 5.0 mph 72% 0.00 in
10:58 78.4 °F 69.0 °F 29.92 in SSE 3.0 mph 5.0 mph 73% 0.00 in
11:03 78.6 °F 69.6 °F 29.92 in SE 3.0 mph 3.0 mph 74% 0.00 in
11:08 79.0 °F 68.4 °F 29.92 in SSW 4.0 mph 6.0 mph 70% 0.00 in
11:13 79.1 °F 68.9 °F 29.92 in SSW 5.0 mph 6.0 mph 71% 0.00 in
11:18 79.4 °F 69.6 °F 29.92 in SSE 7.0 mph 7.0 mph 72% 0.00 in
11:23 79.2 °F 68.2 °F 29.92 in SE 4.0 mph 7.0 mph 69% 0.00 in
11:28 79.2 °F 69.0 °F 29.92 in SSE 4.0 mph 8.0 mph 71% 0.00 in
11:29 79.2 °F 69.0 °F 29.92 in SSE 3.0 mph 8.0 mph 71% 0.00 in
11:30 79.3 °F 69.5 °F 29.92 in South 3.0 mph 8.0 mph 72% 0.00 in
11:33 79.4 °F 68.8 °F 29.92 in WSW 2.0 mph 7.0 mph 70% 0.00 in
11:36 79.5 °F 69.7 °F 29.92 in SSE 2.0 mph 6.0 mph 72% 0.00 in
11:39 80.0 °F 70.6 °F 29.92 in South 6.0 mph 7.0 mph 73% 0.00 in
11:44 80.4 °F 69.3 °F 29.91 in SSW 4.0 mph 7.0 mph 69% 0.00 in
11:49 80.1 °F 69.0 °F 29.92 in WSW 8.0 mph 9.0 mph 69% 0.00 in
11:54 80.0 °F 68.5 °F 29.91 in SSE 2.0 mph 6.0 mph 68% 0.00 in
11:55 80.1 °F 69.9 °F 29.91 in SSW 6.0 mph 7.0 mph 71% 0.00 in
11:56 80.3 °F 69.2 °F 29.91 in SSE 4.0 mph 7.0 mph 69% 0.00 in
11:59 80.3 °F 68.3 °F 29.91 in SSW 5.0 mph 7.0 mph 67% 0.00 in
12:00 80.3 °F 68.3 °F 29.91 in SSW 5.0 mph 7.0 mph 67% 0.00 in
12:04 80.2 °F 68.7 °F 29.91 in SSE 3.0 mph 7.0 mph 68% 0.00 in
12:09 80.3 °F 67.9 °F 29.91 in SW 5.0 mph 9.0 mph 66% 0.00 in
12:10 80.3 °F 67.9 °F 29.91 in SW 6.0 mph 9.0 mph 66% 0.00 in
12:15 80.1 °F 68.2 °F 29.91 in SSW 5.0 mph 8.0 mph 67% 0.00 in
12:20 79.9 °F 68.0 °F 29.90 in SSW 3.0 mph 6.0 mph 67% 0.00 in
12:25 80.1 °F 67.7 °F 29.90 in SW 5.0 mph 7.0 mph 66% 0.00 in
12:30 80.5 °F 67.7 °F 29.90 in WSW 9.0 mph 9.0 mph 65% 0.00 in
12:31 80.2 °F 67.4 °F 29.90 in SW 4.0 mph 9.0 mph 65% 0.00 in
12:32 80.2 °F 67.4 °F 29.90 in SW 4.0 mph 9.0 mph 65% 0.00 in
12:37 81.0 °F 69.0 °F 29.89 in SSE 7.0 mph 7.0 mph 67% 0.00 in
12:42 81.6 °F 69.2 °F 29.89 in SSW 6.0 mph 8.0 mph 66% 0.00 in
12:47 81.5 °F 68.2 °F 29.89 in SW 4.0 mph 8.0 mph 64% 0.00 in
12:52 81.3 °F 68.4 °F 29.89 in SSW 4.0 mph 7.0 mph 65% 0.00 in
12:53 81.3 °F 68.4 °F 29.89 in South 3.0 mph 7.0 mph 65% 0.00 in
12:54 81.5 °F 69.9 °F 29.89 in South 3.0 mph 7.0 mph 68% 0.00 in
12:58 81.9 °F 69.4 °F 29.89 in SW 6.0 mph 6.0 mph 66% 0.00 in
12:59 81.9 °F 69.0 °F 29.89 in South 3.0 mph 10.0 mph 65% 0.00 in
13:04 81.8 °F 68.0 °F 29.89 in SW 9.0 mph 9.0 mph 63% 0.00 in
13:09 80.9 °F 68.0 °F 29.89 in SSE 7.0 mph 9.0 mph 65% 0.00 in
13:14 81.2 °F 69.2 °F 29.89 in SSW 6.0 mph 9.0 mph 67% 0.00 in
13:15 81.4 °F 69.4 °F 29.89 in SSW 7.0 mph 9.0 mph 67% 0.00 in
13:19 81.6 °F 67.3 °F 29.89 in South 5.0 mph 11.0 mph 62% 0.00 in
13:24 81.9 °F 69.4 °F 29.88 in SSE 7.0 mph 10.0 mph 66% 0.00 in
13:30 82.2 °F 68.8 °F 29.88 in SSE 9.0 mph 12.0 mph 64% 0.00 in
13:35 82.0 °F 68.6 °F 29.88 in SW 4.0 mph 11.0 mph 64% 0.00 in
13:36 82.1 °F 69.2 °F 29.88 in SSW 6.0 mph 11.0 mph 65% 0.00 in
13:41 82.8 °F 68.9 °F 29.88 in SW 5.0 mph 9.0 mph 63% 0.00 in
13:46 82.5 °F 67.2 °F 29.88 in SW 5.0 mph 12.0 mph 60% 0.00 in
13:51 82.4 °F 68.1 °F 29.88 in SE 8.0 mph 10.0 mph 62% 0.00 in
13:53 82.3 °F 68.5 °F 29.88 in South 4.0 mph 9.0 mph 63% 0.00 in
13:56 82.6 °F 68.7 °F 29.88 in South 8.0 mph 10.0 mph 63% 0.00 in
13:58 82.3 °F 68.0 °F 29.88 in South 5.0 mph 10.0 mph 62% 0.00 in
13:59 82.3 °F 68.0 °F 29.88 in SE 6.0 mph 10.0 mph 62% 0.00 in
14:01 82.4 °F 69.0 °F 29.88 in SE 3.0 mph 7.0 mph 64% 0.00 in
14:04 82.5 °F 68.6 °F 29.88 in SSW 5.0 mph 11.0 mph 63% 0.00 in
14:06 82.3 °F 68.0 °F 29.88 in SSE 4.0 mph 9.0 mph 62% 0.00 in
14:11 82.7 °F 68.8 °F 29.88 in South 6.0 mph 9.0 mph 63% 0.00 in
14:16 83.0 °F 67.7 °F 29.88 in SW 10.0 mph 12.0 mph 60% 0.00 in
14:17 83.0 °F 66.7 °F 29.88 in SW 12.0 mph 12.0 mph 58% 0.00 in
14:22 82.8 °F 68.0 °F 29.88 in SSW 11.0 mph 11.0 mph 61% 0.00 in
14:27 83.0 °F 69.6 °F 29.87 in South 4.0 mph 9.0 mph 64% 0.00 in
14:28 83.2 °F 69.3 °F 29.87 in WSW 7.0 mph 9.0 mph 63% 0.00 in
14:29 83.4 °F 69.0 °F 29.87 in South 8.0 mph 8.0 mph 62% 0.00 in
14:30 83.5 °F 69.1 °F 29.88 in SE 7.0 mph 8.0 mph 62% 0.00 in
14:34 83.0 °F 68.7 °F 29.88 in SSW 3.0 mph 5.0 mph 62% 0.00 in
14:35 83.0 °F 68.7 °F 29.88 in WSW 4.0 mph 5.0 mph 62% 0.00 in
14:36 82.9 °F 69.0 °F 29.88 in SSW 6.0 mph 9.0 mph 63% 0.00 in
14:41 82.8 °F 67.0 °F 29.88 in South 3.0 mph 10.0 mph 59% 0.00 in
14:46 82.7 °F 68.8 °F 29.88 in SSE 3.0 mph 7.0 mph 63% 0.00 in
14:51 82.6 °F 68.3 °F 29.88 in SW 4.0 mph 9.0 mph 62% 0.00 in
14:55 82.5 °F 67.7 °F 29.88 in SW 5.0 mph 5.0 mph 61% 0.00 in
14:57 82.5 °F 67.7 °F 29.88 in SSE 2.0 mph 5.0 mph 61% 0.00 in
15:00 83.2 °F 69.3 °F 29.88 in SSE 5.0 mph 9.0 mph 63% 0.00 in
15:05 83.6 °F 67.8 °F 29.88 in SSE 6.0 mph 8.0 mph 59% 0.00 in
15:10 83.2 °F 67.9 °F 29.88 in South 6.0 mph 8.0 mph 60% 0.00 in
15:15 83.6 °F 67.8 °F 29.88 in SW 5.0 mph 7.0 mph 59% 0.00 in
15:20 83.6 °F 67.8 °F 29.88 in SW 4.0 mph 10.0 mph 59% 0.00 in
15:25 84.1 °F 67.7 °F 29.88 in SSE 6.0 mph 8.0 mph 58% 0.00 in
15:26 84.1 °F 68.2 °F 29.88 in SSE 6.0 mph 8.0 mph 59% 0.00 in
15:27 84.0 °F 68.1 °F 29.88 in SSE 5.0 mph 8.0 mph 59% 0.00 in
15:28 83.9 °F 69.0 °F 29.88 in SSW 5.0 mph 9.0 mph 61% 0.00 in
15:33 84.4 °F 68.5 °F 29.87 in SSE 9.0 mph 9.0 mph 59% 0.00 in
15:37 84.3 °F 66.9 °F 29.87 in South 9.0 mph 11.0 mph 56% 0.00 in
15:42 84.2 °F 65.8 °F 29.87 in SSW 3.0 mph 10.0 mph 54% 0.00 in
15:47 84.3 °F 67.9 °F 29.87 in SSE 6.0 mph 10.0 mph 58% 0.00 in
15:52 84.7 °F 66.8 °F 29.87 in SSE 7.0 mph 12.0 mph 55% 0.00 in
15:54 84.7 °F 66.2 °F 29.87 in SSW 4.0 mph 12.0 mph 54% 0.00 in
15:57 84.8 °F 67.4 °F 29.87 in WSW 2.0 mph 8.0 mph 56% 0.00 in
15:58 84.8 °F 66.3 °F 29.87 in South 6.0 mph 8.0 mph 54% 0.00 in
15:59 85.0 °F 67.0 °F 29.87 in SW 4.0 mph 8.0 mph 55% 0.00 in
16:04 85.2 °F 68.3 °F 29.87 in SSE 5.0 mph 9.0 mph 57% 0.00 in
16:09 85.4 °F 68.4 °F 29.86 in SSW 4.0 mph 9.0 mph 57% 0.00 in
16:14 85.4 °F 66.3 °F 29.86 in SSW 5.0 mph 5.0 mph 53% 0.00 in
16:15 85.4 °F 66.3 °F 29.86 in SW 4.0 mph 5.0 mph 53% 0.00 in
16:19 85.5 °F 67.5 °F 29.86 in SE 7.0 mph 7.0 mph 55% 0.00 in
16:20 85.5 °F 67.5 °F 29.86 in South 6.0 mph 7.0 mph 55% 0.00 in
16:24 84.7 °F 66.8 °F 29.86 in SE 6.0 mph 7.0 mph 55% 0.00 in
16:25 84.6 °F 67.7 °F 29.86 in SE 4.0 mph 7.0 mph 57% 0.00 in
16:29 84.1 °F 68.7 °F 29.85 in SSE 7.0 mph 11.0 mph 60% 0.00 in
16:30 84.1 °F 68.7 °F 29.85 in SSE 7.0 mph 11.0 mph 60% 0.00 in
16:32 84.1 °F 67.7 °F 29.85 in SSE 7.0 mph 11.0 mph 58% 0.00 in
16:35 84.2 °F 67.3 °F 29.85 in SSE 6.0 mph 8.0 mph 57% 0.00 in
16:37 84.2 °F 66.8 °F 29.85 in SE 4.0 mph 7.0 mph 56% 0.00 in
16:38 84.2 °F 68.3 °F 29.85 in SSW 2.0 mph 7.0 mph 59% 0.00 in
16:42 84.8 °F 68.9 °F 29.85 in SE 8.0 mph 8.0 mph 59% 0.00 in
16:47 84.7 °F 68.3 °F 29.85 in South 6.0 mph 8.0 mph 58% 0.00 in
16:52 84.6 °F 66.7 °F 29.85 in SSE 3.0 mph 8.0 mph 55% 0.00 in
16:57 85.1 °F 68.7 °F 29.85 in SE 9.0 mph 9.0 mph 58% 0.00 in
16:58 85.1 °F 67.1 °F 29.85 in ESE 6.0 mph 9.0 mph 55% 0.00 in
17:03 84.9 °F 68.0 °F 29.85 in SE 7.0 mph 11.0 mph 57% 0.00 in
17:08 84.9 °F 67.5 °F 29.85 in SW 7.0 mph 8.0 mph 56% 0.00 in
17:13 85.0 °F 67.0 °F 29.84 in South 4.0 mph 8.0 mph 55% 0.00 in
17:18 84.7 °F 66.8 °F 29.84 in SE 9.0 mph 9.0 mph 55% 0.00 in
17:23 84.3 °F 67.9 °F 29.84 in SSE 3.0 mph 8.0 mph 58% 0.00 in
17:28 84.5 °F 66.6 °F 29.84 in SE 8.0 mph 9.0 mph 55% 0.00 in
17:31 84.3 °F 67.9 °F 29.84 in SSE 5.0 mph 8.0 mph 58% 0.00 in
17:33 84.5 °F 67.6 °F 29.84 in SE 6.0 mph 9.0 mph 57% 0.00 in
17:35 84.6 °F 67.2 °F 29.84 in SSE 6.0 mph 9.0 mph 56% 0.00 in
17:40 84.8 °F 67.4 °F 29.83 in SSE 9.0 mph 12.0 mph 56% 0.00 in
17:45 84.5 °F 68.6 °F 29.83 in SSE 5.0 mph 9.0 mph 59% 0.00 in
17:50 84.4 °F 67.5 °F 29.83 in SE 6.0 mph 8.0 mph 57% 0.00 in
17:51 84.4 °F 67.5 °F 29.83 in SE 6.0 mph 8.0 mph 57% 0.00 in
17:52 84.3 °F 66.9 °F 29.83 in SE 8.0 mph 10.0 mph 56% 0.00 in
17:56 84.3 °F 67.4 °F 29.83 in SE 8.0 mph 10.0 mph 57% 0.00 in
17:57 84.2 °F 67.3 °F 29.83 in SSE 8.0 mph 10.0 mph 57% 0.00 in
17:58 84.2 °F 67.3 °F 29.83 in SSE 6.0 mph 9.0 mph 57% 0.00 in
18:01 84.2 °F 67.3 °F 29.83 in SE 4.0 mph 9.0 mph 57% 0.00 in
18:06 84.0 °F 67.7 °F 29.83 in SE 7.0 mph 9.0 mph 58% 0.00 in
18:11 84.1 °F 67.2 °F 29.83 in SSE 6.0 mph 7.0 mph 57% 0.00 in
18:16 84.3 °F 67.4 °F 29.83 in SSE 8.0 mph 9.0 mph 57% 0.00 in
18:21 84.2 °F 67.3 °F 29.83 in SSE 5.0 mph 11.0 mph 57% 0.00 in
18:23 84.2 °F 67.8 °F 29.83 in SSE 5.0 mph 11.0 mph 58% 0.00 in
18:26 84.2 °F 67.8 °F 29.82 in SSE 6.0 mph 9.0 mph 58% 0.00 in
18:32 84.2 °F 67.3 °F 29.82 in SSE 9.0 mph 11.0 mph 57% 0.00 in
18:37 84.0 °F 69.1 °F 29.82 in SE 5.0 mph 8.0 mph 61% 0.00 in
18:42 84.0 °F 68.1 °F 29.82 in SSE 10.0 mph 12.0 mph 59% 0.00 in
18:47 83.7 °F 67.9 °F 29.82 in SE 5.0 mph 8.0 mph 59% 0.00 in
18:48 83.7 °F 68.8 °F 29.82 in SSE 6.0 mph 7.0 mph 61% 0.00 in
18:53 83.7 °F 68.8 °F 29.82 in SSE 2.0 mph 8.0 mph 61% 0.00 in
18:54 83.7 °F 68.8 °F 29.82 in SSE 6.0 mph 8.0 mph 61% 0.00 in
18:59 83.2 °F 66.9 °F 29.82 in SSW 5.0 mph 7.0 mph 58% 0.00 in
19:07 82.1 °F 67.3 °F 29.81 in SSE 3.0 mph 8.0 mph 61% 0.00 in
19:12 81.6 °F 67.3 °F 29.81 in SSE 6.0 mph 7.0 mph 62% 0.00 in
19:13 81.6 °F 67.3 °F 29.81 in South 5.0 mph 8.0 mph 62% 0.00 in
19:18 81.5 °F 67.7 °F 29.80 in SSE 6.0 mph 6.0 mph 63% 0.00 in
19:23 81.5 °F 68.2 °F 29.80 in SE 3.0 mph 6.0 mph 64% 0.00 in
19:28 81.7 °F 67.4 °F 29.79 in SSE 6.0 mph 7.0 mph 62% 0.00 in
19:33 81.9 °F 68.1 °F 29.79 in SSE 4.0 mph 8.0 mph 63% 0.00 in
19:34 81.9 °F 68.1 °F 29.79 in South 7.0 mph 8.0 mph 63% 0.00 in
19:36 82.0 °F 67.7 °F 29.79 in SE 6.0 mph 8.0 mph 62% 0.00 in
19:41 81.8 °F 68.0 °F 29.79 in SSE 3.0 mph 8.0 mph 63% 0.00 in
19:46 81.7 °F 67.9 °F 29.79 in SE 5.0 mph 8.0 mph 63% 0.00 in
19:51 81.5 °F 68.2 °F 29.79 in South 2.0 mph 7.0 mph 64% 0.00 in
19:57 81.4 °F 68.5 °F 29.79 in SE 5.0 mph 5.0 mph 65% 0.00 in
19:58 81.3 °F 68.4 °F 29.79 in South 2.0 mph 5.0 mph 65% 0.00 in
20:02 81.0 °F 68.1 °F 29.79 in SSE 3.0 mph 5.0 mph 65% 0.00 in
20:03 81.0 °F 68.6 °F 29.79 in SSE 4.0 mph 5.0 mph 66% 0.00 in
20:04 80.9 °F 68.5 °F 29.79 in SSE 2.0 mph 4.0 mph 66% 0.00 in
20:08 80.5 °F 68.1 °F 29.80 in South 2.0 mph 3.0 mph 66% 0.00 in
20:13 80.3 °F 67.9 °F 29.80 in SSE 2.0 mph 4.0 mph 66% 0.00 in
20:18 80.2 °F 67.8 °F 29.80 in South 3.0 mph 4.0 mph 66% 0.00 in
20:23 79.9 °F 68.0 °F 29.80 in South 2.0 mph 4.0 mph 67% 0.00 in
20:28 79.5 °F 68.0 °F 29.80 in SSW 2.0 mph 3.0 mph 68% 0.00 in
20:29 79.4 °F 67.9 °F 29.80 in SSW 2.0 mph 3.0 mph 68% 0.00 in
20:33 78.8 °F 67.8 °F 29.80 in SSE 2.0 mph 2.0 mph 69% 0.00 in
20:38 78.0 °F 67.8 °F 29.80 in SE 2.0 mph 2.0 mph 71% 0.00 in
20:39 77.8 °F 67.7 °F 29.80 in SSE 3.0 mph 3.0 mph 71% 0.00 in
20:44 77.2 °F 67.5 °F 29.80 in SE 2.0 mph 3.0 mph 72% 0.00 in
20:49 76.6 °F 67.3 °F 29.80 in SSE 1.0 mph 1.0 mph 73% 0.00 in
20:53 76.4 °F 67.5 °F 29.80 in SSE 1.0 mph 2.0 mph 74% 0.00 in
20:54 76.4 °F 67.5 °F 29.81 in SSE 1.0 mph 2.0 mph 74% 0.00 in
20:55 76.3 °F 67.4 °F 29.81 in Calm   2.0 mph 74% 0.00 in
20:59 76.3 °F 67.4 °F 29.81 in SSE 2.0 mph 2.0 mph 74% 0.00 in
21:00 76.3 °F 67.4 °F 29.81 in SSE 2.0 mph 2.0 mph 74% 0.00 in
21:05 76.1 °F 67.6 °F 29.81 in SE 1.0 mph 1.0 mph 75% 0.00 in
21:10 75.7 °F 67.2 °F 29.81 in SE 1.0 mph 2.0 mph 75% 0.00 in
21:15 75.3 °F 67.2 °F 29.81 in SE 1.0 mph 2.0 mph 76% 0.00 in
21:20 75.3 °F 67.2 °F 29.81 in SE 2.0 mph 3.0 mph 76% 0.00 in
21:25 75.4 °F 67.3 °F 29.82 in SE 2.0 mph 2.0 mph 76% 0.00 in
21:29 75.4 °F 67.3 °F 29.82 in SE 2.0 mph 2.0 mph 76% 0.00 in
21:30 75.3 °F 67.2 °F 29.82 in SE 1.0 mph 2.0 mph 76% 0.00 in
21:32 75.3 °F 67.2 °F 29.82 in SE 2.0 mph 2.0 mph 76% 0.00 in
21:35 75.1 °F 67.0 °F 29.82 in SE 1.0 mph 2.0 mph 76% 0.00 in
21:37 75.0 °F 66.9 °F 29.82 in Calm   2.0 mph 76% 0.00 in
21:42 74.8 °F 67.1 °F 29.82 in SE 1.0 mph 2.0 mph 77% 0.00 in
21:47 74.6 °F 66.9 °F 29.82 in SE 1.0 mph 2.0 mph 77% 0.00 in
21:52 74.4 °F 67.1 °F 29.82 in SE 1.0 mph 2.0 mph 78% 0.00 in
22:01 74.0 °F 66.7 °F 29.82 in SE 2.0 mph 2.0 mph 78% 0.00 in
22:07 74.0 °F 66.7 °F 29.83 in SE 1.0 mph 3.0 mph 78% 0.00 in
22:12 73.8 °F 66.9 °F 29.83 in SE 2.0 mph 2.0 mph 79% 0.00 in
22:17 73.5 °F 66.6 °F 29.83 in SSE 2.0 mph 2.0 mph 79% 0.00 in
22:18 73.5 °F 66.6 °F 29.83 in SSE 2.0 mph 2.0 mph 79% 0.00 in
22:23 73.3 °F 66.8 °F 29.83 in SSE 2.0 mph 2.0 mph 80% 0.00 in
22:28 72.9 °F 66.4 °F 29.83 in SSE 2.0 mph 2.0 mph 80% 0.00 in
22:29 72.9 °F 66.7 °F 29.83 in SSE 2.0 mph 2.0 mph 81% 0.00 in
22:30 72.8 °F 66.6 °F 29.83 in SSE 2.0 mph 3.0 mph 81% 0.00 in
22:34 72.6 °F 66.4 °F 29.83 in SSE 2.0 mph 3.0 mph 81% 0.00 in
22:35 72.6 °F 66.4 °F 29.83 in SSE 1.0 mph 3.0 mph 81% 0.00 in
22:37 72.6 °F 66.4 °F 29.83 in South 2.0 mph 3.0 mph 81% 0.00 in
22:42 72.6 °F 66.8 °F 29.83 in SSW 1.0 mph 3.0 mph 82% 0.00 in
22:46 72.8 °F 66.6 °F 29.83 in SSW 3.0 mph 3.0 mph 81% 0.00 in
22:52 72.9 °F 66.7 °F 29.84 in SSE 2.0 mph 4.0 mph 81% 0.00 in
22:57 72.4 °F 66.6 °F 29.84 in SSE 2.0 mph 4.0 mph 82% 0.00 in
22:58 72.4 °F 66.6 °F 29.84 in SSE 1.0 mph 4.0 mph 82% 0.00 in
22:59 72.4 °F 66.6 °F 29.84 in SSE 1.0 mph 4.0 mph 82% 0.00 in
23:03 72.5 °F 66.7 °F 29.84 in SSE 1.0 mph 2.0 mph 82% 0.00 in
23:08 72.4 °F 66.6 °F 29.84 in SSE 1.0 mph 2.0 mph 82% 0.00 in
23:18 71.8 °F 66.4 °F 29.85 in SE 1.0 mph 2.0 mph 83% 0.00 in
23:23 71.6 °F 66.5 °F 29.85 in SSE 2.0 mph 3.0 mph 84% 0.00 in
23:24 71.6 °F 66.5 °F 29.85 in SE 1.0 mph 3.0 mph 84% 0.00 in
23:29 71.7 °F 66.6 °F 29.85 in SE 1.0 mph 2.0 mph 84% 0.00 in
23:33 71.6 °F 66.5 °F 29.85 in SE 2.0 mph 2.0 mph 84% 0.00 in
23:34 71.6 °F 66.5 °F 29.85 in SE 2.0 mph 3.0 mph 84% 0.00 in
23:38 71.6 °F 66.5 °F 29.85 in SE 2.0 mph 3.0 mph 84% 0.00 in
23:39 71.7 °F 66.6 °F 29.85 in SSE 3.0 mph 4.0 mph 84% 0.00 in
23:44 71.6 °F 66.5 °F 29.85 in SSE 3.0 mph 3.0 mph 84% 0.00 in
23:49 71.6 °F 66.5 °F 29.85 in SSE 3.0 mph 3.0 mph 84% 0.00 in
23:54 71.4 °F 66.7 °F 29.84 in SE 2.0 mph 4.0 mph 85% 0.00 in
23:55 71.3 °F 66.6 °F 29.84 in SSE 3.0 mph 3.0 mph 85% 0.00 in
23:56 71.3 °F 66.6 °F 29.84 in SSE 3.0 mph 3.0 mph 85% 0.00 in
Compliments of Weather Underground